Weather at Lake Ann Airway Estates Airport

Public forecast

Using degrees Fahrenheit for public forecast. Weather courtesy of forecast.io.

Closest aviation weather report (METAR) to Lake Ann Airway Estates Airport

Closest report is Frankfort Dow Memorial Field, 13.0 nm (24.0 km) WSW. Retrieved 2021/10/28 14:15 UTC (0 seconds ago):

KFKS 281415Z AUTO 12004KT 10SM -RA CLR 12/08 A2979 RMK AO2 T01220075

Closest aviation forecast (TAF) to Lake Ann Airway Estates Airport

Closest forecast is Cherry Capital Airport, 14.4 nm (26.7 km) E. Retrieved 2021/10/28 12:36 UTC (2 hours ago):

TAF KTVC 281135Z 2812/2912 VRB04KT P6SM OVC015 FM281500 09007KT P6SM OVC026 FM281600 09007KT P6SM BKN050 FM290600 VRB04KT P6SM BKN070 FM290900 VRB04KT P6SM BKN030